Time;durP1;ratioP1;P1;durP2;ratioP2;P2;SDS_P1;SDS_P2;PMS_P1;PMS_P2;Temp;Humidity;BMP_temperature;BMP_pressure;BME280_temperature;BME280_humidity;BME280_pressure;Samples;Min_cycle;Max_cycle;Signal;HPM_P1;HPM_P2
2021/12/30 00:00:50;;;;;;;87.95;13.05;;;8.40;98.10;;;;;;5089270;28;20059;-78
2021/12/30 00:03:17;;;;;;;83.30;13.23;;;8.40;98.10;;;;;;5073953;28;20069;-78
2021/12/30 00:05:43;;;;;;;89.22;13.85;;;8.50;98.10;;;;;;5081019;28;20877;-78
2021/12/30 00:08:13;;;;;;;97.60;14.55;;;8.50;98.20;;;;;;5086953;28;20543;-78
2021/12/30 00:10:41;;;;;;;84.03;12.82;;;8.60;98.30;;;;;;5084396;28;20053;-78
2021/12/30 00:13:08;;;;;;;92.93;12.95;;;8.60;98.30;;;;;;5083229;28;20040;-78
2021/12/30 00:15:38;;;;;;;97.25;14.02;;;8.70;98.40;;;;;;5088483;28;20136;-78
2021/12/30 00:18:07;;;;;;;81.82;11.82;;;8.80;98.40;;;;;;5091836;28;20926;-79
2021/12/30 00:20:34;;;;;;;77.65;12.43;;;8.80;98.40;;;;;;5084077;28;20049;-79
2021/12/30 00:23:03;;;;;;;92.57;11.88;;;8.90;98.40;;;;;;5081537;28;20043;-78
2021/12/30 00:25:37;;;;;;;91.97;11.95;;;8.90;98.40;;;;;;5089790;28;20143;-79
2021/12/30 00:28:10;;;;;;;74.75;11.48;;;8.90;98.50;;;;;;5084147;28;20052;-79
2021/12/30 00:30:37;;;;;;;89.03;10.23;;;9.00;98.50;;;;;;5093082;28;20057;-78
2021/12/30 00:33:08;;;;;;;93.38;12.10;;;9.10;98.50;;;;;;5079087;28;20061;-77
2021/12/30 00:35:35;;;;;;;76.38;11.50;;;9.20;98.50;;;;;;5072249;28;20049;-77
2021/12/30 00:38:05;;;;;;;80.65;11.18;;;9.20;98.50;;;;;;5078253;28;20070;-78
2021/12/30 00:40:34;;;;;;;100.75;11.85;;;9.30;98.50;;;;;;5071513;28;20051;-78
2021/12/30 00:43:04;;;;;;;89.50;11.52;;;9.30;98.50;;;;;;5073653;28;20518;-78
2021/12/30 00:45:35;;;;;;;73.70;10.57;;;9.30;98.40;;;;;;5091389;28;20757;-78
2021/12/30 00:48:05;;;;;;;91.13;12.02;;;9.30;98.40;;;;;;5088156;28;20045;-78
2021/12/30 00:50:33;;;;;;;79.78;11.50;;;9.40;98.40;;;;;;5080454;28;20080;-77
2021/12/30 00:53:01;;;;;;;97.00;12.18;;;9.40;98.40;;;;;;5083247;28;20880;-79
2021/12/30 00:55:28;;;;;;;110.60;13.70;;;9.40;98.40;;;;;;5088714;28;20064;-78
2021/12/30 00:57:54;;;;;;;79.95;11.13;;;9.50;98.40;;;;;;5088654;28;20117;-79
2021/12/30 01:00:24;;;;;;;94.28;12.73;;;9.50;98.30;;;;;;5098567;28;20101;-77
2021/12/30 01:02:51;;;;;;;85.93;12.07;;;9.60;98.30;;;;;;5092393;28;20104;-77
2021/12/30 01:05:21;;;;;;;102.05;14.13;;;9.60;98.30;;;;;;5093403;28;20885;-80
2021/12/30 01:07:48;;;;;;;91.88;15.02;;;9.60;98.30;;;;;;5080703;28;20056;-77
2021/12/30 01:10:20;;;;;;;95.70;14.35;;;9.70;98.30;;;;;;5088074;28;20053;-77
2021/12/30 01:12:51;;;;;;;101.03;15.00;;;9.70;98.30;;;;;;5086401;28;20047;-78
2021/12/30 01:15:34;;;;;;;116.75;16.25;;;9.80;98.30;;;;;;5074326;28;20052;-77
2021/12/30 01:20:48;;;;;;;102.30;15.50;;;9.90;98.30;;;;;;5093054;28;20083;-78
2021/12/30 01:23:15;;;;;;;103.20;17.13;;;9.90;98.30;;;;;;5092991;28;20052;-78
2021/12/30 01:25:42;;;;;;;107.65;16.92;;;9.90;98.30;;;;;;5086556;28;20059;-77
2021/12/30 01:28:09;;;;;;;110.60;17.33;;;10.00;98.30;;;;;;5077805;28;20089;-77
2021/12/30 01:30:36;;;;;;;106.22;17.85;;;10.00;98.30;;;;;;5083866;28;20059;-76
2021/12/30 01:33:08;;;;;;;119.22;18.85;;;10.00;98.30;;;;;;5058022;28;20781;-76
2021/12/30 01:35:35;;;;;;;91.40;17.83;;;10.10;98.30;;;;;;5083622;28;20053;-78
2021/12/30 01:38:02;;;;;;;102.53;19.13;;;10.10;98.30;;;;;;5083719;28;20048;-77
2021/12/30 01:40:30;;;;;;;78.53;16.35;;;10.20;98.30;;;;;;5090218;28;20044;-77
2021/12/30 01:42:57;;;;;;;107.85;18.75;;;10.20;98.30;;;;;;5085500;28;20136;-77
2021/12/30 01:45:24;;;;;;;118.97;18.92;;;10.20;98.30;;;;;;5094185;28;20144;-77
2021/12/30 01:47:53;;;;;;;99.10;17.27;;;10.20;98.30;;;;;;5069756;28;20049;-77
2021/12/30 01:50:23;;;;;;;111.15;20.45;;;10.30;98.20;;;;;;5079131;28;20045;-77
2021/12/30 01:52:50;;;;;;;98.32;17.88;;;10.30;98.30;;;;;;5082839;28;20088;-78
2021/12/30 01:55:18;;;;;;;109.38;17.77;;;10.30;98.20;;;;;;5072419;28;20056;-80
2021/12/30 01:57:47;;;;;;;102.47;18.73;;;10.30;98.20;;;;;;5090623;28;20104;-77
2021/12/30 02:00:18;;;;;;;102.10;18.80;;;10.40;98.20;;;;;;5083108;28;20056;-78
2021/12/30 02:02:45;;;;;;;96.88;19.05;;;10.40;98.30;;;;;;5083072;28;20059;-77
2021/12/30 02:05:14;;;;;;;115.70;19.70;;;10.40;98.20;;;;;;5085798;28;20525;-77
2021/12/30 02:07:40;;;;;;;107.93;18.85;;;10.50;98.30;;;;;;5082780;28;20148;-77
2021/12/30 02:10:08;;;;;;;123.05;20.27;;;10.50;98.30;;;;;;5077807;28;20131;-78
2021/12/30 02:12:36;;;;;;;121.70;20.45;;;10.50;98.30;;;;;;5079391;28;20723;-78
2021/12/30 02:15:12;;;;;;;120.18;21.25;;;10.50;98.30;;;;;;5088863;28;20182;-78
2021/12/30 02:17:39;;;;;;;111.50;22.67;;;10.50;98.30;;;;;;5090297;28;20056;-77
2021/12/30 02:20:10;;;;;;;117.03;24.08;;;10.50;98.30;;;;;;5079887;28;20056;-78
2021/12/30 02:22:37;;;;;;;122.25;23.33;;;10.60;98.30;;;;;;5090837;28;20139;-78
2021/12/30 02:25:05;;;;;;;118.70;23.30;;;10.60;98.30;;;;;;5085746;28;20055;-77
2021/12/30 02:27:33;;;;;;;120.65;24.05;;;10.60;98.30;;;;;;5098374;28;20067;-78
2021/12/30 02:29:59;;;;;;;139.40;25.02;;;10.60;98.30;;;;;;5098318;28;20138;-78
2021/12/30 02:32:27;;;;;;;120.72;23.95;;;10.70;98.30;;;;;;5083539;28;20033;-78
2021/12/30 02:34:54;;;;;;;168.82;26.45;;;10.70;98.30;;;;;;5085463;28;20083;-78
2021/12/30 02:37:21;;;;;;;125.10;24.15;;;10.70;98.30;;;;;;5094586;28;20140;-78
2021/12/30 02:39:54;;;;;;;111.20;24.90;;;10.70;98.30;;;;;;5094688;28;20049;-78
2021/12/30 02:42:25;;;;;;;96.17;23.77;;;10.70;98.40;;;;;;5092475;28;20045;-77
2021/12/30 02:44:52;;;;;;;136.10;24.95;;;10.70;98.40;;;;;;5089756;28;20280;-77
2021/12/30 02:47:19;;;;;;;131.32;24.88;;;10.80;98.40;;;;;;5084502;28;20113;-78
2021/12/30 02:49:46;;;;;;;115.53;22.50;;;10.70;98.40;;;;;;5082503;28;20081;-78
2021/12/30 02:52:13;;;;;;;118.38;22.52;;;10.80;98.40;;;;;;5087973;28;20044;-80
2021/12/30 02:54:42;;;;;;;104.07;21.67;;;10.80;98.40;;;;;;5088700;28;20487;-78
2021/12/30 02:57:14;;;;;;;117.47;22.00;;;10.80;98.50;;;;;;5073734;28;20052;-77
2021/12/30 02:59:43;;;;;;;100.93;22.00;;;10.90;98.50;;;;;;5090561;28;20041;-77
2021/12/30 03:02:10;;;;;;;102.13;21.67;;;10.90;98.50;;;;;;5075029;28;20049;-78
2021/12/30 03:04:37;;;;;;;78.70;19.67;;;10.90;98.50;;;;;;5058466;28;20053;-77
2021/12/30 03:07:04;;;;;;;83.22;20.00;;;11.00;98.50;;;;;;5083768;28;20055;-78
2021/12/30 03:09:32;;;;;;;79.18;19.27;;;11.00;98.50;;;;;;5075490;28;21044;-77
2021/12/30 03:11:59;;;;;;;83.05;18.75;;;11.10;98.60;;;;;;5070484;28;20053;-78
2021/12/30 03:14:26;;;;;;;95.82;20.25;;;11.10;98.60;;;;;;5081185;28;20045;-78
2021/12/30 03:16:53;;;;;;;91.72;20.45;;;11.10;98.60;;;;;;5061229;28;20053;-78
2021/12/30 03:19:20;;;;;;;82.97;20.63;;;11.10;98.60;;;;;;5058576;28;20404;-78
2021/12/30 03:21:47;;;;;;;79.47;19.25;;;11.20;98.60;;;;;;5072974;28;20056;-78
2021/12/30 03:24:14;;;;;;;90.50;20.33;;;11.20;98.70;;;;;;5075790;28;20053;-78
2021/12/30 03:26:40;;;;;;;77.25;19.75;;;11.20;98.60;;;;;;5081957;28;20053;-77
2021/12/30 03:29:07;;;;;;;85.50;21.15;;;11.30;98.60;;;;;;5075969;28;20092;-77
2021/12/30 03:31:34;;;;;;;76.28;20.92;;;11.30;98.60;;;;;;5077838;28;20075;-77
2021/12/30 03:34:01;;;;;;;104.85;22.55;;;11.30;98.70;;;;;;5079485;28;20132;-77
2021/12/30 03:36:27;;;;;;;74.45;21.15;;;11.30;98.70;;;;;;5075395;28;20098;-77
2021/12/30 03:38:56;;;;;;;90.55;24.23;;;11.30;98.60;;;;;;5074636;28;20830;-78
2021/12/30 03:41:25;;;;;;;155.45;25.45;;;11.30;98.60;;;;;;5070204;28;20111;-78
2021/12/30 03:43:52;;;;;;;121.18;24.08;;;11.30;98.60;;;;;;5074698;28;20052;-78
2021/12/30 03:46:20;;;;;;;152.88;25.23;;;11.20;98.60;;;;;;5076319;28;20049;-78
2021/12/30 03:48:47;;;;;;;70.95;20.77;;;11.20;98.60;;;;;;5069340;28;20076;-77
2021/12/30 03:51:22;;;;;;;97.20;22.40;;;11.20;98.50;;;;;;5075734;28;20133;-77
2021/12/30 03:53:51;;;;;;;98.53;21.67;;;11.20;98.50;;;;;;5075330;28;20041;-78
2021/12/30 03:56:21;;;;;;;106.50;23.23;;;11.30;98.50;;;;;;5071940;28;20045;-80
2021/12/30 03:58:48;;;;;;;83.10;19.80;;;11.30;98.60;;;;;;5074443;28;20053;-77
2021/12/30 04:01:19;;;;;;;85.68;19.70;;;11.30;98.60;;;;;;5075442;28;20837;-78
2021/12/30 04:03:47;;;;;;;64.07;18.25;;;11.30;98.50;;;;;;5072752;28;20053;-78
2021/12/30 04:06:14;;;;;;;41.28;15.25;;;11.40;98.60;;;;;;5094924;28;20049;-78
2021/12/30 04:08:42;;;;;;;48.72;15.93;;;11.40;98.60;;;;;;5082147;28;20051;-78
2021/12/30 04:11:09;;;;;;;44.47;15.02;;;11.40;98.60;;;;;;5071357;28;20048;-78
2021/12/30 04:13:39;;;;;;;58.17;16.70;;;11.50;98.60;;;;;;5080978;28;20048;-79
2021/12/30 04:16:08;;;;;;;45.63;17.38;;;11.50;98.50;;;;;;5063696;28;20052;-79
2021/12/30 04:18:35;;;;;;;56.13;17.33;;;11.50;98.60;;;;;;5068848;28;20783;-78
2021/12/30 04:21:04;;;;;;;43.85;17.00;;;11.50;98.60;;;;;;5079890;28;20549;-78
2021/12/30 04:23:30;;;;;;;45.10;15.80;;;11.60;98.60;;;;;;5074242;28;20044;-77
2021/12/30 04:25:57;;;;;;;48.47;16.75;;;11.60;98.60;;;;;;5073480;28;20044;-78
2021/12/30 04:28:25;;;;;;;46.33;16.08;;;11.60;98.60;;;;;;5078516;28;20871;-79
2021/12/30 04:30:52;;;;;;;34.75;14.48;;;11.60;98.50;;;;;;5080680;28;20070;-78
2021/12/30 04:33:19;;;;;;;43.75;14.82;;;11.60;98.60;;;;;;5067022;28;20695;-78
2021/12/30 04:35:46;;;;;;;26.63;11.82;;;11.60;98.50;;;;;;5069472;28;20418;-79
2021/12/30 04:38:13;;;;;;;33.17;11.40;;;11.60;98.50;;;;;;5056378;28;20063;-79
2021/12/30 04:40:39;;;;;;;36.38;11.55;;;11.60;98.50;;;;;;5070414;28;20045;-78
2021/12/30 04:43:10;;;;;;;22.70;8.40;;;11.60;98.50;;;;;;5071592;28;20132;-79
2021/12/30 04:45:37;;;;;;;35.10;10.40;;;11.60;98.50;;;;;;5076260;28;20061;-79
2021/12/30 04:48:04;;;;;;;36.08;10.35;;;11.60;98.50;;;;;;5072470;28;20440;-79
2021/12/30 04:50:30;;;;;;;22.45;7.75;;;11.60;98.40;;;;;;5065988;28;20049;-79
2021/12/30 04:52:57;;;;;;;28.75;8.85;;;11.60;98.50;;;;;;5054235;28;20057;-78
2021/12/30 04:55:24;;;;;;;23.88;6.55;;;11.50;98.50;;;;;;5069221;28;20052;-79
2021/12/30 04:57:50;;;;;;;12.98;5.65;;;11.60;98.40;;;;;;5075477;28;20080;-78
2021/12/30 05:00:17;;;;;;;14.18;5.28;;;11.60;98.40;;;;;;5078645;28;20056;-79
2021/12/30 05:05:23;;;;;;;15.57;5.43;;;11.60;98.50;;;;;;5074856;28;20053;-79
2021/12/30 05:07:50;;;;;;;26.42;5.88;;;11.60;98.50;;;;;;5070456;28;20073;-78
2021/12/30 05:10:17;;;;;;;20.23;5.50;;;11.60;98.50;;;;;;5074380;28;20944;-79
2021/12/30 05:12:44;;;;;;;14.82;5.03;;;11.60;98.40;;;;;;5070151;28;20044;-78
2021/12/30 05:15:10;;;;;;;15.63;4.68;;;11.60;98.50;;;;;;5071200;28;20087;-78
2021/12/30 05:17:39;;;;;;;23.10;5.05;;;11.60;98.50;;;;;;5078284;28;20053;-79
2021/12/30 05:20:09;;;;;;;13.55;4.40;;;11.50;98.40;;;;;;5075234;28;20047;-78
2021/12/30 05:22:39;;;;;;;17.02;5.28;;;11.50;98.40;;;;;;5073138;28;20525;-79
2021/12/30 05:25:10;;;;;;;19.48;5.53;;;11.50;98.40;;;;;;5068751;28;20659;-79
2021/12/30 05:27:38;;;;;;;30.55;7.32;;;11.60;98.40;;;;;;5073420;28;22597;-79
2021/12/30 05:30:07;;;;;;;38.63;8.98;;;11.50;98.40;;;;;;5072383;28;20404;-79
2021/12/30 05:32:34;;;;;;;44.38;9.73;;;11.50;98.40;;;;;;5079288;28;20049;-80
2021/12/30 05:35:03;;;;;;;54.17;10.90;;;11.50;98.50;;;;;;5071498;28;20048;-78
2021/12/30 05:37:30;;;;;;;52.05;10.82;;;11.50;98.40;;;;;;5072020;28;20052;-79
2021/12/30 05:39:56;;;;;;;43.55;10.40;;;11.50;98.50;;;;;;5088381;28;20801;-80
2021/12/30 05:42:23;;;;;;;52.05;10.90;;;11.50;98.50;;;;;;5073577;28;20852;-79
2021/12/30 05:44:51;;;;;;;49.95;10.85;;;11.50;98.50;;;;;;5078243;28;20057;-79
2021/12/30 05:47:18;;;;;;;35.38;8.35;;;11.50;98.50;;;;;;5078555;28;20136;-79
2021/12/30 05:49:45;;;;;;;37.13;8.25;;;11.50;98.50;;;;;;5081539;28;20047;-79
2021/12/30 05:52:12;;;;;;;40.42;9.27;;;11.50;98.50;;;;;;5076486;28;20059;-80
2021/12/30 05:54:41;;;;;;;47.28;9.55;;;11.50;98.50;;;;;;5084617;28;20052;-78
2021/12/30 05:57:10;;;;;;;39.85;9.77;;;11.50;98.50;;;;;;5075610;28;20049;-76
2021/12/30 05:59:39;;;;;;;43.65;8.77;;;11.50;98.50;;;;;;5078691;28;20057;-78
2021/12/30 06:02:06;;;;;;;35.60;9.77;;;11.50;98.50;;;;;;5081215;28;20825;-78
2021/12/30 06:04:33;;;;;;;51.08;10.93;;;11.50;98.60;;;;;;5081317;28;20056;-79
2021/12/30 06:07:02;;;;;;;45.78;11.88;;;11.50;98.60;;;;;;5075776;28;20041;-80
2021/12/30 06:09:29;;;;;;;41.70;11.50;;;11.50;98.60;;;;;;5083515;28;20052;-77
2021/12/30 06:11:55;;;;;;;55.47;12.65;;;11.50;98.60;;;;;;5079497;28;20047;-78
2021/12/30 06:14:22;;;;;;;39.22;11.55;;;11.60;98.70;;;;;;5079687;28;20943;-80
2021/12/30 06:16:49;;;;;;;37.60;11.63;;;11.60;98.70;;;;;;5076467;28;20053;-78
2021/12/30 06:19:16;;;;;;;34.60;10.48;;;11.60;98.70;;;;;;5057498;28;20045;-79
2021/12/30 06:21:42;;;;;;;25.48;8.98;;;11.60;98.60;;;;;;5080280;28;20055;-78
2021/12/30 06:24:09;;;;;;;29.10;8.23;;;11.70;98.60;;;;;;5081200;28;20051;-79
2021/12/30 06:26:39;;;;;;;18.52;7.70;;;11.70;98.60;;;;;;5079718;28;20052;-78
2021/12/30 06:29:09;;;;;;;24.08;7.20;;;11.70;98.60;;;;;;5063993;28;20140;-79
2021/12/30 06:31:37;;;;;;;20.88;6.43;;;11.60;98.60;;;;;;5074966;28;20056;-78
2021/12/30 06:34:04;;;;;;;19.00;5.88;;;11.60;98.60;;;;;;5079338;28;20059;-79
2021/12/30 06:36:31;;;;;;;16.23;4.95;;;11.60;98.50;;;;;;5064338;28;20052;-79
2021/12/30 06:38:57;;;;;;;15.73;4.47;;;11.60;98.50;;;;;;5082953;28;20049;-77
2021/12/30 06:41:24;;;;;;;12.65;4.50;;;11.70;98.50;;;;;;5077445;28;20096;-79
2021/12/30 06:43:51;;;;;;;15.00;4.47;;;11.70;98.50;;;;;;5079792;28;20075;-78
2021/12/30 06:46:20;;;;;;;16.10;4.55;;;11.60;98.40;;;;;;5070951;28;20061;-79
2021/12/30 06:48:47;;;;;;;13.15;4.53;;;11.60;98.40;;;;;;5085855;28;20088;-79
2021/12/30 06:51:17;;;;;;;18.38;4.70;;;11.60;98.40;;;;;;5075027;28;20051;-78
2021/12/30 06:53:45;;;;;;;12.73;4.50;;;11.60;98.30;;;;;;5080935;28;20053;-79
2021/12/30 06:56:13;;;;;;;19.20;4.57;;;11.60;98.40;;;;;;5073623;28;20045;-78
2021/12/30 06:58:41;;;;;;;17.25;4.53;;;11.60;98.40;;;;;;5081200;28;20601;-78
2021/12/30 07:01:08;;;;;;;15.43;4.28;;;11.60;98.30;;;;;;5065050;28;20071;-79
2021/12/30 07:03:35;;;;;;;16.30;4.82;;;11.60;98.40;;;;;;5083488;28;20127;-79
2021/12/30 07:06:01;;;;;;;15.23;4.70;;;11.60;98.20;;;;;;5070793;28;20090;-78
2021/12/30 07:08:28;;;;;;;14.38;5.30;;;11.60;98.30;;;;;;5074057;28;20053;-79
2021/12/30 07:10:56;;;;;;;17.73;5.50;;;11.60;98.30;;;;;;5072981;28;20049;-78
2021/12/30 07:13:23;;;;;;;16.67;5.38;;;11.60;98.30;;;;;;5075631;28;20048;-78
2021/12/30 07:15:49;;;;;;;18.05;5.82;;;11.60;98.20;;;;;;5081588;28;20053;-79
2021/12/30 07:18:16;;;;;;;20.33;5.30;;;11.60;98.20;;;;;;5077029;28;20053;-79
2021/12/30 07:20:43;;;;;;;18.40;5.60;;;11.60;98.20;;;;;;5078033;28;20049;-78
2021/12/30 07:23:10;;;;;;;15.70;5.45;;;11.50;98.10;;;;;;5081809;28;20640;-78
2021/12/30 07:25:38;;;;;;;14.00;5.15;;;11.60;98.20;;;;;;5061548;28;20927;-79
2021/12/30 07:28:05;;;;;;;17.90;5.13;;;11.60;98.20;;;;;;5080478;28;20044;-78
2021/12/30 07:30:34;;;;;;;14.98;4.53;;;11.60;98.20;;;;;;5084093;28;20053;-78
2021/12/30 07:33:05;;;;;;;14.02;4.60;;;11.60;98.20;;;;;;5075429;28;20049;-78
2021/12/30 07:35:35;;;;;;;15.77;4.53;;;11.60;98.10;;;;;;5056262;28;20055;-77
2021/12/30 07:38:04;;;;;;;20.17;5.03;;;11.60;98.10;;;;;;5077385;28;20053;-78
2021/12/30 07:40:33;;;;;;;20.02;5.18;;;11.60;98.00;;;;;;5082025;28;20114;-76
2021/12/30 07:43:00;;;;;;;22.98;6.38;;;11.60;98.00;;;;;;5086017;28;20048;-77
2021/12/30 07:45:27;;;;;;;25.25;8.15;;;11.60;98.10;;;;;;5080485;28;20057;-78
2021/12/30 07:47:54;;;;;;;18.13;7.07;;;11.70;98.00;;;;;;5086625;28;20056;-76
2021/12/30 07:50:23;;;;;;;25.02;9.07;;;11.70;98.00;;;;;;5082225;28;20042;-76
2021/12/30 07:52:50;;;;;;;31.48;10.93;;;11.70;98.00;;;;;;5082370;28;20541;-77
2021/12/30 07:55:17;;;;;;;28.13;10.50;;;11.80;97.90;;;;;;5076877;28;20056;-76
2021/12/30 07:57:44;;;;;;;24.83;10.30;;;11.80;97.80;;;;;;5078902;28;20045;-77
2021/12/30 08:00:14;;;;;;;30.70;11.25;;;11.80;97.70;;;;;;5081713;28;20564;-77
2021/12/30 08:02:42;;;;;;;28.13;11.88;;;11.80;97.70;;;;;;5079854;28;20048;-77
2021/12/30 08:05:11;;;;;;;32.40;11.23;;;11.80;97.80;;;;;;5081378;28;20941;-76
2021/12/30 08:07:42;;;;;;;32.35;10.90;;;11.80;97.80;;;;;;5074681;28;20147;-77
2021/12/30 08:10:12;;;;;;;33.92;11.10;;;11.80;97.80;;;;;;5070728;28;20052;-76
2021/12/30 08:12:43;;;;;;;29.30;10.82;;;11.80;97.70;;;;;;5069251;28;20053;-77
2021/12/30 08:15:10;;;;;;;27.60;9.82;;;11.80;97.70;;;;;;5075020;28;20048;-76
2021/12/30 08:17:38;;;;;;;18.90;8.07;;;11.80;97.70;;;;;;5080291;28;20062;-77
2021/12/30 08:20:09;;;;;;;22.00;8.50;;;11.90;97.60;;;;;;5073203;28;20053;-80
2021/12/30 08:22:38;;;;;;;27.50;8.60;;;11.90;97.40;;;;;;5080010;28;20045;-77
2021/12/30 08:25:07;;;;;;;25.98;8.23;;;12.00;97.30;;;;;;5079110;28;20118;-78
2021/12/30 08:27:34;;;;;;;29.80;8.35;;;12.00;97.10;;;;;;5072805;28;20140;-77
2021/12/30 08:30:02;;;;;;;26.23;7.18;;;12.00;97.10;;;;;;5071787;28;20047;-77
2021/12/30 08:32:28;;;;;;;32.80;7.25;;;12.00;97.00;;;;;;5081040;28;20068;-77
2021/12/30 08:34:55;;;;;;;27.27;6.20;;;12.00;97.10;;;;;;5079035;28;20037;-76
2021/12/30 08:37:22;;;;;;;27.92;6.53;;;12.00;97.10;;;;;;5078796;28;20033;-77
2021/12/30 08:39:48;;;;;;;25.50;5.40;;;12.00;96.90;;;;;;5083274;28;20506;-77
2021/12/30 08:42:26;;;;;;;27.45;4.82;;;12.00;96.80;;;;;;5069882;28;20051;-78
2021/12/30 08:44:55;;;;;;;30.42;6.00;;;12.00;96.50;;;;;;5084321;28;20879;-77
2021/12/30 08:47:24;;;;;;;32.53;6.03;;;12.00;96.50;;;;;;5092765;28;20049;-76
2021/12/30 08:49:51;;;;;;;33.20;5.60;;;12.00;96.50;;;;;;5082724;28;20049;-78
2021/12/30 08:52:20;;;;;;;28.27;5.30;;;12.00;96.40;;;;;;5083334;28;20048;-78
2021/12/30 08:54:48;;;;;;;34.67;5.85;;;12.00;96.20;;;;;;5083751;28;20156;-77
2021/12/30 08:57:17;;;;;;;32.00;5.38;;;12.00;96.00;;;;;;5089899;28;20052;-77
2021/12/30 08:59:44;;;;;;;27.52;5.47;;;12.00;96.10;;;;;;5084953;28;20080;-77
2021/12/30 09:02:11;;;;;;;30.40;6.35;;;12.00;96.00;;;;;;5084320;28;20072;-77
2021/12/30 09:04:42;;;;;;;35.65;6.65;;;12.00;96.00;;;;;;5064800;28;20049;-77
2021/12/30 09:07:09;;;;;;;29.90;5.85;;;12.00;96.00;;;;;;5084811;28;20978;-78
2021/12/30 09:09:39;;;;;;;26.25;6.22;;;12.00;96.00;;;;;;5083433;28;20080;-77
2021/12/30 09:12:08;;;;;;;29.42;7.38;;;12.10;96.00;;;;;;5081317;28;20076;-79
2021/12/30 09:14:34;;;;;;;30.00;7.07;;;12.10;96.10;;;;;;5095315;28;20078;-77
2021/12/30 09:17:08;;;;;;;37.75;7.18;;;12.10;96.20;;;;;;5089240;28;20143;-77
2021/12/30 09:19:35;;;;;;;31.90;7.75;;;12.10;96.10;;;;;;5091594;28;20044;-77
2021/12/30 09:22:02;;;;;;;32.20;6.60;;;12.10;96.10;;;;;;5091456;28;20051;-78
2021/12/30 09:24:29;;;;;;;31.88;6.57;;;12.20;96.00;;;;;;5073570;28;20063;-79
2021/12/30 09:26:55;;;;;;;36.33;7.00;;;12.20;95.80;;;;;;5095177;28;20135;-76
2021/12/30 09:29:22;;;;;;;33.90;6.90;;;12.20;95.90;;;;;;5066045;28;20053;-77
2021/12/30 09:31:50;;;;;;;27.58;5.82;;;12.20;95.80;;;;;;5091654;28;20055;-77
2021/12/30 09:34:18;;;;;;;33.45;7.50;;;12.20;95.40;;;;;;5089299;28;20048;-76
2021/12/30 09:36:45;;;;;;;36.40;6.70;;;12.30;95.60;;;;;;5089845;28;20079;-77
2021/12/30 09:39:16;;;;;;;26.45;6.60;;;12.30;95.10;;;;;;5090703;28;20051;-76
2021/12/30 09:41:53;;;;;;;23.95;6.45;;;12.30;95.20;;;;;;5093816;28;20147;-77
2021/12/30 09:44:27;;;;;;;20.40;6.32;;;12.40;95.10;;;;;;5093835;27;20055;-77
2021/12/30 09:46:54;;;;;;;22.85;6.07;;;12.40;95.10;;;;;;5091204;28;20063;-77
2021/12/30 09:49:23;;;;;;;25.13;5.82;;;12.40;94.90;;;;;;5095577;28;20048;-77
2021/12/30 09:51:51;;;;;;;36.10;5.93;;;12.40;94.80;;;;;;5092502;28;20469;-76
2021/12/30 09:54:21;;;;;;;29.83;5.70;;;12.50;95.10;;;;;;5071509;28;20059;-79
2021/12/30 09:56:49;;;;;;;19.73;5.90;;;12.50;94.90;;;;;;5092087;28;20057;-76
2021/12/30 09:59:16;;;;;;;18.98;5.07;;;12.50;94.70;;;;;;5064767;28;20045;-79
2021/12/30 10:01:43;;;;;;;24.13;5.90;;;12.50;94.60;;;;;;5071481;28;20063;-76
2021/12/30 10:04:14;;;;;;;29.58;5.80;;;12.50;94.70;;;;;;5086797;28;20524;-76
2021/12/30 10:06:43;;;;;;;28.27;5.75;;;12.50;94.80;;;;;;5080589;28;20079;-77
2021/12/30 10:09:13;;;;;;;30.92;5.47;;;12.50;94.60;;;;;;5094399;28;20059;-77
2021/12/30 10:11:48;;;;;;;25.88;5.07;;;12.50;94.30;;;;;;5074080;28;20052;-77
2021/12/30 10:14:52;;;;;;;24.50;5.72;;;12.60;94.30;;;;;;5089286;28;20169;-76
2021/12/30 10:17:25;;;;;;;15.77;3.90;;;12.60;94.50;;;;;;5072090;28;20049;-77
2021/12/30 10:19:53;;;;;;;26.90;4.95;;;12.50;94.20;;;;;;5085839;28;20073;-76
2021/12/30 10:22:23;;;;;;;26.95;4.82;;;12.60;94.00;;;;;;5089876;28;20539;-77
2021/12/30 10:24:51;;;;;;;20.17;4.90;;;12.60;93.50;;;;;;5089614;28;20147;-77
2021/12/30 10:27:33;;;;;;;17.00;3.83;;;12.60;93.80;;;;;;5093255;28;20313;-77
2021/12/30 10:30:00;;;;;;;19.55;4.25;;;12.60;94.00;;;;;;5087922;28;20063;-78
2021/12/30 10:32:28;;;;;;;19.00;3.55;;;12.60;93.60;;;;;;5092277;28;20055;-77
2021/12/30 10:35:14;;;;;;;30.45;4.68;;;12.60;93.80;;;;;;5080518;28;20049;-78
2021/12/30 10:37:46;;;;;;;25.85;4.30;;;12.60;93.60;;;;;;5086246;28;20131;-78
2021/12/30 10:40:33;;;;;;;21.20;3.83;;;12.60;93.30;;;;;;5089805;28;20045;-78
2021/12/30 10:43:37;;;;;;;26.05;4.65;;;12.60;93.40;;;;;;5086110;28;20067;-77
2021/12/30 10:46:16;;;;;;;16.38;3.45;;;12.60;93.60;;;;;;5076087;28;20052;-77
2021/12/30 10:48:48;;;;;;;27.08;4.60;;;12.50;93.30;;;;;;5080707;28;20560;-78
2021/12/30 10:51:19;;;;;;;16.80;3.75;;;12.60;93.00;;;;;;5075981;28;20060;-78
2021/12/30 10:53:47;;;;;;;19.33;3.80;;;12.60;93.30;;;;;;5079436;28;20063;-78
2021/12/30 10:56:19;;;;;;;21.58;4.20;;;12.50;93.80;;;;;;5084928;28;20059;-77
2021/12/30 10:58:45;;;;;;;19.77;4.60;;;12.60;93.70;;;;;;5084177;28;20052;-78
2021/12/30 11:01:18;;;;;;;16.75;4.38;;;12.50;93.70;;;;;;5093651;28;20872;-77
2021/12/30 11:03:59;;;;;;;17.90;4.10;;;12.50;93.60;;;;;;5064064;28;20072;-78
2021/12/30 11:06:27;;;;;;;24.70;4.60;;;12.50;93.30;;;;;;5087435;28;20064;-78
2021/12/30 11:09:18;;;;;;;25.65;5.18;;;12.50;93.40;;;;;;5073855;28;20053;-77
2021/12/30 11:11:58;;;;;;;17.15;3.90;;;12.50;93.50;;;;;;5087906;28;20499;-78
2021/12/30 11:14:30;;;;;;;17.20;4.40;;;12.60;93.40;;;;;;5090064;28;20936;-78
2021/12/30 11:17:05;;;;;;;17.65;4.15;;;12.60;93.60;;;;;;5066783;28;20053;-77
2021/12/30 11:19:35;;;;;;;16.98;4.43;;;12.50;93.60;;;;;;5086080;28;20052;-77
2021/12/30 11:22:08;;;;;;;17.77;4.55;;;12.50;93.50;;;;;;5098351;28;20143;-77
2021/12/30 11:24:40;;;;;;;20.17;4.22;;;12.50;93.60;;;;;;5095830;28;20068;-77
2021/12/30 11:27:10;;;;;;;13.57;4.28;;;12.50;93.90;;;;;;5092159;28;20045;-77
2021/12/30 11:29:39;;;;;;;17.88;4.88;;;12.50;93.80;;;;;;5083984;28;20056;-79
2021/12/30 11:32:07;;;;;;;14.38;4.13;;;12.50;93.50;;;;;;5085643;28;20063;-78
2021/12/30 11:34:34;;;;;;;18.17;4.07;;;12.50;93.30;;;;;;5083958;28;20045;-79
2021/12/30 11:37:05;;;;;;;15.55;4.22;;;12.50;93.40;;;;;;5086877;28;20059;-78
2021/12/30 11:39:37;;;;;;;23.63;5.00;;;12.50;93.40;;;;;;5085498;28;20381;-77
2021/12/30 11:42:16;;;;;;;17.30;4.45;;;12.50;93.60;;;;;;5083667;28;20088;-79
2021/12/30 11:44:51;;;;;;;21.10;5.05;;;12.40;93.50;;;;;;5093322;28;20134;-77
2021/12/30 11:47:38;;;;;;;15.57;5.25;;;12.40;93.90;;;;;;5085473;28;20140;-77
2021/12/30 11:50:13;;;;;;;20.90;5.00;;;12.40;93.80;;;;;;5085594;28;20055;-78
2021/12/30 11:52:47;;;;;;;13.98;4.00;;;12.40;93.50;;;;;;5086665;28;20110;-78
2021/12/30 11:55:43;;;;;;;18.17;4.95;;;12.40;93.90;;;;;;5073056;28;20143;-79
2021/12/30 11:58:29;;;;;;;18.83;5.30;;;12.40;94.00;;;;;;5089358;28;20033;-78
2021/12/30 12:01:21;;;;;;;20.35;5.30;;;12.40;94.10;;;;;;5076777;28;20052;-77
2021/12/30 12:03:54;;;;;;;17.90;4.75;;;12.30;94.20;;;;;;5069776;28;20063;-78
2021/12/30 12:06:42;;;;;;;17.90;5.07;;;12.30;94.40;;;;;;5080422;28;20130;-77
2021/12/30 12:09:27;;;;;;;18.30;5.05;;;12.30;94.00;;;;;;5091032;28;20052;-77
2021/12/30 12:12:04;;;;;;;18.38;5.50;;;12.40;93.70;;;;;;5084961;28;20053;-77
2021/12/30 12:14:53;;;;;;;18.63;5.38;;;12.30;93.80;;;;;;5081905;28;20045;-78
2021/12/30 12:17:32;;;;;;;17.33;5.25;;;12.40;93.70;;;;;;5084517;28;20044;-77
2021/12/30 12:20:26;;;;;;;16.00;5.18;;;12.40;93.60;;;;;;5083125;28;20130;-78
2021/12/30 12:22:53;;;;;;;20.95;5.75;;;12.40;93.30;;;;;;5071959;28;20118;-78
2021/12/30 12:25:28;;;;;;;20.88;5.20;;;12.40;93.30;;;;;;5093665;28;20087;-78
2021/12/30 12:27:56;;;;;;;21.48;5.72;;;12.50;93.20;;;;;;5072104;28;20056;-78
2021/12/30 12:30:24;;;;;;;17.63;4.63;;;12.50;92.80;;;;;;5067291;28;20052;-77
2021/12/30 12:33:26;;;;;;;13.70;4.60;;;12.50;93.20;;;;;;5074951;28;20423;-77
2021/12/30 12:35:54;;;;;;;19.60;4.70;;;12.50;93.20;;;;;;5080040;28;20059;-77
2021/12/30 12:38:42;;;;;;;14.10;4.22;;;12.50;92.70;;;;;;5081702;28;20052;-78
2021/12/30 12:41:31;;;;;;;15.02;4.10;;;12.50;92.90;;;;;;5061025;28;20068;-78
2021/12/30 12:44:20;;;;;;;15.55;4.20;;;12.60;93.10;;;;;;5073058;28;20053;-77
2021/12/30 12:46:51;;;;;;;17.73;4.63;;;12.50;93.00;;;;;;5079713;28;20059;-78
2021/12/30 12:49:34;;;;;;;18.08;4.38;;;12.60;93.10;;;;;;5065325;28;20056;-78
2021/12/30 12:52:06;;;;;;;11.98;4.60;;;12.60;93.30;;;;;;5064828;28;20124;-76